createdAt,value
2022-12-06T00:02:12.914Z,102071.19
2022-12-06T00:04:57.840Z,102046.47
2022-12-06T00:07:42.972Z,102043.06
2022-12-06T00:10:28.372Z,102061.81
2022-12-06T00:13:13.604Z,102051.59
2022-12-06T00:16:06.249Z,102067.88
2022-12-06T00:18:51.453Z,102061.88
2022-12-06T00:21:37.343Z,102061.97
2022-12-06T00:24:23.344Z,102056.94
2022-12-06T00:27:08.972Z,102021.91
2022-12-06T00:29:54.131Z,102043.22
2022-12-06T00:32:39.150Z,102056.88
2022-12-06T00:35:24.251Z,102045.84
2022-12-06T00:38:09.843Z,102043.13
2022-12-06T00:41:04.204Z,102050.09
2022-12-06T00:43:50.367Z,102052.03
2022-12-06T00:46:35.971Z,102043.53
2022-12-06T00:49:21.008Z,102012.91
2022-12-06T00:52:05.910Z,102042.66
2022-12-06T00:54:51.206Z,102041.03
2022-12-06T00:57:36.279Z,102020.59
2022-12-06T01:00:21.443Z,102027.50
2022-12-06T01:03:07.514Z,102041.88
2022-12-06T01:05:52.621Z,102018.81
2022-12-06T01:08:38.278Z,102038.31
2022-12-06T01:11:24.528Z,102040.81
2022-12-06T01:14:09.540Z,102021.34
2022-12-06T01:16:55.001Z,102042.13
2022-12-06T01:19:40.430Z,102045.47
2022-12-06T01:22:25.832Z,102043.59
2022-12-06T01:25:10.976Z,102026.34
2022-12-06T01:27:56.134Z,102025.53
2022-12-06T01:30:41.159Z,102035.88
2022-12-06T01:33:26.590Z,102024.69
2022-12-06T01:36:24.402Z,102012.81
2022-12-06T01:39:10.608Z,102029.88
2022-12-06T01:41:55.863Z,102029.91
2022-12-06T01:44:51.300Z,102029.81
2022-12-06T01:47:43.002Z,102029.13
2022-12-06T01:50:32.726Z,102035.31
2022-12-06T01:53:25.289Z,102037.97
2022-12-06T01:56:11.471Z,102038.16
2022-12-06T01:58:58.654Z,102035.56
2022-12-06T02:01:44.252Z,102037.25
2022-12-06T02:04:31.630Z,102022.50
2022-12-06T02:07:16.559Z,102019.44
2022-12-06T02:10:03.180Z,102033.84
2022-12-06T02:12:54.503Z,102040.69
2022-12-06T02:15:49.066Z,102037.41
2022-12-06T02:18:42.572Z,102032.16
2022-12-06T02:21:54.913Z,102034.81
2022-12-06T02:24:48.974Z,102034.84
2022-12-06T02:27:36.751Z,102044.50
2022-12-06T02:30:38.832Z,102014.69
2022-12-06T02:33:24.194Z,102037.09
2022-12-06T02:36:41.643Z,102041.50
2022-12-06T02:39:35.730Z,102030.50
2022-12-06T02:42:27.110Z,102042.56
2022-12-06T02:45:17.763Z,102028.97
2022-12-06T02:48:04.617Z,102034.00
2022-12-06T02:51:07.256Z,102011.81
2022-12-06T02:53:56.364Z,102034.97
2022-12-06T02:56:41.530Z,102029.13
2022-12-06T02:59:26.840Z,102024.81
2022-12-06T03:02:11.984Z,102023.16
2022-12-06T03:05:12.180Z,101986.56
2022-12-06T03:07:59.789Z,102019.00
2022-12-06T03:10:55.998Z,101989.16
2022-12-06T03:14:14.924Z,102010.59
2022-12-06T03:17:16.802Z,102007.25
2022-12-06T03:20:09.032Z,101988.63
2022-12-06T03:23:07.112Z,101999.97
2022-12-06T03:25:55.334Z,102003.56
2022-12-06T03:28:42.587Z,101986.44
2022-12-06T03:31:32.217Z,102002.66
2022-12-06T03:34:20.814Z,102009.69
2022-12-06T03:37:09.315Z,102000.25
2022-12-06T03:40:09.698Z,102002.22
2022-12-06T03:42:55.635Z,102001.56
2022-12-06T03:45:58.032Z,101993.19
2022-12-06T03:48:58.571Z,102008.53
2022-12-06T03:51:45.353Z,102002.50
2022-12-06T03:54:30.739Z,102002.50
2022-12-06T03:57:15.972Z,102003.25
2022-12-06T04:00:01.648Z,101995.41
2022-12-06T04:02:46.872Z,102000.50
2022-12-06T04:05:32.175Z,101997.06
2022-12-06T04:08:17.662Z,101998.00
2022-12-06T04:11:03.924Z,101956.97
2022-12-06T04:13:48.891Z,101984.28
2022-12-06T04:16:52.815Z,101985.16
2022-12-06T04:19:37.900Z,101989.59
2022-12-06T04:22:41.702Z,101993.97
2022-12-06T04:25:26.956Z,101988.94
2022-12-06T04:28:30.868Z,101979.56
2022-12-06T04:31:35.257Z,101990.66
2022-12-06T04:34:39.439Z,101973.56
2022-12-06T04:37:43.130Z,101982.91
2022-12-06T04:40:28.204Z,101985.56
2022-12-06T04:43:31.681Z,101977.94
2022-12-06T04:46:17.740Z,101991.69
2022-12-06T04:49:03.215Z,101986.56
2022-12-06T04:51:48.123Z,101965.16
2022-12-06T04:54:33.766Z,101981.31
2022-12-06T04:57:19.025Z,101965.09
2022-12-06T05:00:04.996Z,101989.25
2022-12-06T05:02:50.126Z,101996.09
2022-12-06T05:05:35.092Z,101978.00
2022-12-06T05:08:20.225Z,101979.69
2022-12-06T05:11:05.921Z,101962.63
2022-12-06T05:13:51.040Z,101960.00
2022-12-06T05:16:36.582Z,101984.97
2022-12-06T05:19:21.588Z,101977.25
2022-12-06T05:22:06.679Z,101984.06
2022-12-06T05:24:51.766Z,101988.44
2022-12-06T05:27:36.954Z,101989.25
2022-12-06T05:30:22.168Z,101996.09
2022-12-06T05:33:07.451Z,101985.88
2022-12-06T05:35:52.553Z,101987.47
2022-12-06T05:38:37.712Z,101959.19
2022-12-06T05:41:23.572Z,101984.03
2022-12-06T05:44:11.199Z,101971.84
2022-12-06T05:46:56.295Z,101981.53
2022-12-06T05:49:41.452Z,101967.06
2022-12-06T05:52:26.818Z,101966.31
2022-12-06T05:55:11.604Z,101983.53
2022-12-06T05:57:56.659Z,101981.81
2022-12-06T06:00:42.133Z,101984.34
2022-12-06T06:03:27.144Z,101965.44
2022-12-06T06:06:12.517Z,101992.88
2022-12-06T06:08:57.633Z,101981.00
2022-12-06T06:11:42.883Z,101990.53
2022-12-06T06:14:28.247Z,101988.00
2022-12-06T06:17:13.494Z,101994.19
2022-12-06T06:19:58.959Z,101995.22
2022-12-06T06:22:44.031Z,102005.56
2022-12-06T06:25:29.369Z,101980.09
2022-12-06T06:28:14.711Z,101996.34
2022-12-06T06:31:03.919Z,101992.13
2022-12-06T06:33:49.093Z,101991.22
2022-12-06T06:36:34.282Z,101992.13
2022-12-06T06:39:19.716Z,101995.78
2022-12-06T06:42:05.202Z,101980.63
2022-12-06T06:44:50.241Z,101990.81
2022-12-06T06:47:35.612Z,101987.22
2022-12-06T06:50:20.776Z,101990.31
2022-12-06T06:53:06.981Z,101997.88
2022-12-06T06:55:53.960Z,101993.41
2022-12-06T06:58:39.360Z,101992.53
2022-12-06T07:01:24.507Z,102004.69
2022-12-06T07:04:09.745Z,102004.69
2022-12-06T07:06:54.914Z,102010.00
2022-12-06T07:09:40.092Z,102012.03
2022-12-06T07:12:25.344Z,102005.41
2022-12-06T07:15:11.508Z,102003.88
2022-12-06T07:17:56.366Z,102011.63
2022-12-06T07:20:41.574Z,102003.19
2022-12-06T07:23:26.529Z,101994.06
2022-12-06T07:26:13.606Z,102010.31
2022-12-06T07:28:59.882Z,102017.25
2022-12-06T07:31:44.664Z,102008.75
2022-12-06T07:34:30.319Z,102009.78
2022-12-06T07:37:18.164Z,102008.13
2022-12-06T07:40:03.711Z,102012.44
2022-12-06T07:43:07.500Z,102022.06
2022-12-06T07:45:52.708Z,101996.34
2022-12-06T07:48:38.350Z,102017.56
2022-12-06T07:51:23.836Z,102023.53
2022-12-06T07:54:09.183Z,102026.06
2022-12-06T07:56:56.242Z,102025.22
2022-12-06T07:59:41.125Z,102030.50
2022-12-06T08:02:28.164Z,102016.03
2022-12-06T08:05:13.517Z,102032.25
2022-12-06T08:07:58.778Z,102040.00
2022-12-06T08:10:43.929Z,102023.00
2022-12-06T08:13:29.674Z,102042.25
2022-12-06T08:16:14.803Z,102041.88
2022-12-06T08:19:00.508Z,102048.13
2022-12-06T08:21:45.583Z,102048.13
2022-12-06T08:24:30.962Z,102052.44
2022-12-06T08:27:16.076Z,102033.94
2022-12-06T08:30:01.602Z,102047.88
2022-12-06T08:32:48.173Z,102032.47
2022-12-06T08:35:36.631Z,102051.09
2022-12-06T08:38:22.076Z,102055.31
2022-12-06T08:41:27.779Z,102052.56
2022-12-06T08:44:14.687Z,102056.84
2022-12-06T08:47:01.841Z,102053.41
2022-12-06T08:49:46.873Z,102044.06
2022-12-06T08:52:32.211Z,102061.97
2022-12-06T08:55:17.594Z,102067.13
2022-12-06T08:58:02.925Z,102062.75
2022-12-06T09:00:48.157Z,102072.09
2022-12-06T09:03:33.386Z,102071.88
2022-12-06T09:06:19.653Z,102071.31
2022-12-06T09:09:05.893Z,102042.44
2022-12-06T09:11:51.337Z,102070.91
2022-12-06T09:14:36.494Z,102082.31
2022-12-06T09:17:21.839Z,102048.81
2022-12-06T09:20:07.733Z,102074.47
2022-12-06T09:22:53.172Z,102084.84
2022-12-06T09:25:42.007Z,102078.81
2022-12-06T09:28:26.925Z,102053.03
2022-12-06T09:31:12.191Z,102081.91
2022-12-06T09:33:57.452Z,102082.53
2022-12-06T09:36:50.923Z,102077.13
2022-12-06T09:39:46.732Z,102096.66
2022-12-06T09:42:58.562Z,102086.97
2022-12-06T09:46:03.559Z,102089.41
2022-12-06T09:48:58.141Z,102090.09
2022-12-06T09:52:03.606Z,102089.94
2022-12-06T09:55:17.132Z,102097.06
2022-12-06T09:58:21.435Z,102078.25
2022-12-06T10:01:15.795Z,102093.47
2022-12-06T10:04:39.503Z,102094.97
2022-12-06T10:07:30.833Z,102100.91
2022-12-06T10:10:25.302Z,102092.09
2022-12-06T10:13:36.372Z,102084.34
2022-12-06T10:16:37.934Z,102095.38
2022-12-06T10:19:35.298Z,102095.28
2022-12-06T10:22:40.377Z,102095.03
2022-12-06T10:25:40.703Z,102103.66
2022-12-06T10:28:47.298Z,102082.09
2022-12-06T10:31:41.184Z,102096.66
2022-12-06T10:34:29.013Z,102112.09
2022-12-06T10:37:51.630Z,102098.28
2022-12-06T10:40:39.666Z,102104.06
2022-12-06T10:43:40.447Z,102102.91
2022-12-06T10:46:51.272Z,102072.59
2022-12-06T10:49:39.453Z,102089.53
2022-12-06T10:52:33.576Z,102087.72
2022-12-06T10:55:33.070Z,102084.09
2022-12-06T10:58:39.238Z,102080.59
2022-12-06T11:01:39.204Z,102065.72
2022-12-06T11:04:37.320Z,102073.25
2022-12-06T11:07:26.931Z,102057.78
2022-12-06T11:10:31.683Z,102075.41
2022-12-06T11:13:35.764Z,102074.44
2022-12-06T11:16:30.127Z,102066.63
2022-12-06T11:19:38.250Z,102060.41
2022-12-06T11:22:25.966Z,102063.78
2022-12-06T11:25:22.204Z,102071.31
2022-12-06T11:28:50.697Z,102075.47
2022-12-06T11:31:40.957Z,102061.72
2022-12-06T11:34:36.443Z,102045.31
2022-12-06T11:37:24.283Z,102063.19
2022-12-06T11:40:15.648Z,102071.00
2022-12-06T11:43:04.485Z,102066.44
2022-12-06T11:45:50.066Z,102062.94
2022-12-06T11:48:36.173Z,102063.59
2022-12-06T11:51:25.406Z,102042.00
2022-12-06T11:54:24.474Z,102053.53
2022-12-06T11:57:26.766Z,102054.13
2022-12-06T12:00:22.038Z,102050.66
2022-12-06T12:03:32.601Z,102049.00
2022-12-06T12:06:19.903Z,102052.09
2022-12-06T12:09:14.375Z,102045.13
2022-12-06T12:12:06.409Z,102039.78
2022-12-06T12:14:58.496Z,102018.16
2022-12-06T12:17:47.281Z,102042.03
2022-12-06T12:20:46.467Z,102035.09
2022-12-06T12:23:38.754Z,102028.22
2022-12-06T12:26:33.790Z,102027.25
2022-12-06T12:29:20.977Z,102021.78
2022-12-06T12:32:11.580Z,102022.63
2022-12-06T12:34:56.703Z,102017.28
2022-12-06T12:37:41.754Z,102018.88
2022-12-06T12:40:41.404Z,102016.28
2022-12-06T12:43:30.425Z,102000.53
2022-12-06T12:46:20.991Z,102004.81
2022-12-06T12:49:24.445Z,101999.69
2022-12-06T12:52:35.999Z,102000.31
2022-12-06T12:55:31.062Z,102003.44
2022-12-06T12:58:16.062Z,101997.16
2022-12-06T13:01:05.898Z,101984.38
2022-12-06T13:04:18.087Z,101990.09
2022-12-06T13:07:16.948Z,101983.56
2022-12-06T13:10:04.062Z,101993.78
2022-12-06T13:12:55.483Z,101987.06
2022-12-06T13:15:52.666Z,101976.13
2022-12-06T13:18:50.391Z,101992.44
2022-12-06T13:21:40.410Z,101987.97
2022-12-06T13:24:27.611Z,101986.31
2022-12-06T13:27:16.823Z,101998.06
2022-12-06T13:30:10.856Z,101992.75
2022-12-06T13:33:20.491Z,101996.88
2022-12-06T13:36:16.176Z,101995.94
2022-12-06T13:39:35.692Z,101994.28
2022-12-06T13:42:43.591Z,101993.69
2022-12-06T13:45:40.745Z,101983.59
2022-12-06T13:48:26.174Z,101993.22
2022-12-06T13:51:32.994Z,101975.91
2022-12-06T13:54:18.053Z,101963.72
2022-12-06T13:57:19.790Z,101985.72
2022-12-06T14:00:30.565Z,101985.03
2022-12-06T14:03:21.560Z,101950.13
2022-12-06T14:06:14.801Z,101962.28
2022-12-06T14:09:01.886Z,101976.19
2022-12-06T14:11:47.570Z,101973.81
2022-12-06T14:14:33.635Z,101965.16
2022-12-06T14:17:52.629Z,101959.88
2022-12-06T14:20:28.969Z,101965.06
2022-12-06T14:23:30.260Z,101950.75
2022-12-06T14:26:23.995Z,101959.47
2022-12-06T14:29:21.439Z,101940.72
2022-12-06T14:32:08.633Z,101954.31
2022-12-06T14:35:05.775Z,101952.00
2022-12-06T14:37:52.964Z,101946.72
2022-12-06T14:41:00.386Z,101929.94
2022-12-06T14:43:48.861Z,101938.38
2022-12-06T14:46:34.243Z,101943.50
2022-12-06T14:49:40.149Z,101932.16
2022-12-06T14:52:28.566Z,101914.25
2022-12-06T14:55:18.148Z,101915.94
2022-12-06T14:58:28.272Z,101935.22
2022-12-06T15:01:28.507Z,101928.72
2022-12-06T15:04:26.886Z,101925.31
2022-12-06T15:07:31.302Z,101928.13
2022-12-06T15:10:29.879Z,101895.81
2022-12-06T15:13:16.160Z,101933.56
2022-12-06T15:16:04.104Z,101929.44
2022-12-06T15:18:58.900Z,101940.06
2022-12-06T15:21:43.796Z,101932.28
2022-12-06T15:24:29.230Z,101913.56
2022-12-06T15:27:14.435Z,101928.31
2022-12-06T15:29:59.979Z,101940.25
2022-12-06T15:32:45.149Z,101933.41
2022-12-06T15:35:30.408Z,101920.06
2022-12-06T15:38:15.522Z,101939.88
2022-12-06T15:41:00.683Z,101941.63
2022-12-06T15:43:46.347Z,101944.38
2022-12-06T15:46:32.926Z,101919.78
2022-12-06T15:49:20.797Z,101949.66
2022-12-06T15:52:16.645Z,101945.47
2022-12-06T15:55:02.251Z,101959.53
2022-12-06T15:57:47.726Z,101948.59
2022-12-06T16:00:32.942Z,101957.34
2022-12-06T16:03:18.511Z,101948.84
2022-12-06T16:06:03.827Z,101952.28
2022-12-06T16:08:49.818Z,101966.19
2022-12-06T16:11:35.255Z,101960.28
2022-12-06T16:14:21.495Z,101970.81
2022-12-06T16:17:06.841Z,101961.50
2022-12-06T16:20:10.564Z,101965.84
2022-12-06T16:23:14.525Z,101959.91
2022-12-06T16:26:00.145Z,101968.66
2022-12-06T16:28:45.346Z,101962.63
2022-12-06T16:31:33.151Z,101964.38
2022-12-06T16:34:21.898Z,101961.72
2022-12-06T16:37:07.122Z,101954.13
2022-12-06T16:39:52.324Z,101958.53
2022-12-06T16:42:37.726Z,101955.31
2022-12-06T16:45:23.520Z,101960.59
2022-12-06T16:48:19.714Z,101965.91
2022-12-06T16:51:05.087Z,101966.94
2022-12-06T16:53:50.519Z,101972.22
2022-12-06T16:56:41.386Z,101972.38
2022-12-06T16:59:27.154Z,101976.75
2022-12-06T17:02:29.579Z,101975.09
2022-12-06T17:05:21.564Z,101975.94
2022-12-06T17:08:06.863Z,101973.16
2022-12-06T17:11:12.260Z,101950.97
2022-12-06T17:13:57.083Z,101947.59
2022-12-06T17:16:43.762Z,101968.88
2022-12-06T17:19:31.153Z,101970.63
2022-12-06T17:22:16.833Z,101959.25
2022-12-06T17:25:06.476Z,101965.25
2022-12-06T17:27:53.905Z,101955.59
2022-12-06T17:30:39.751Z,101968.06
2022-12-06T17:33:24.666Z,101956.25
2022-12-06T17:36:11.432Z,101964.25
2022-12-06T17:39:01.865Z,101971.47
2022-12-06T17:42:16.019Z,101977.69
2022-12-06T17:45:01.299Z,101969.91
2022-12-06T17:47:46.888Z,101978.69
2022-12-06T17:50:32.110Z,101976.28
2022-12-06T17:53:17.072Z,101983.28
2022-12-06T17:56:26.920Z,101980.69
2022-12-06T17:59:14.687Z,101976.53
2022-12-06T18:02:17.263Z,101973.09
2022-12-06T18:05:03.480Z,101986.75
2022-12-06T18:07:50.779Z,101973.09
2022-12-06T18:10:36.103Z,101958.44
2022-12-06T18:13:21.421Z,101990.66
2022-12-06T18:16:24.473Z,101987.34
2022-12-06T18:19:13.357Z,101996.69
2022-12-06T18:21:58.506Z,101996.59
2022-12-06T18:24:44.682Z,101992.16
2022-12-06T18:27:29.834Z,102004.16
2022-12-06T18:30:15.197Z,101988.63
2022-12-06T18:33:01.300Z,101995.47
2022-12-06T18:35:46.485Z,101997.06
2022-12-06T18:38:32.246Z,102001.34
2022-12-06T18:41:21.760Z,101995.28
2022-12-06T18:44:08.150Z,102007.28
2022-12-06T18:46:53.219Z,102003.88
2022-12-06T18:49:38.550Z,102002.94
2022-12-06T18:52:23.826Z,101988.44
2022-12-06T18:55:09.015Z,101967.84
2022-12-06T18:57:54.234Z,101979.56
2022-12-06T19:00:40.836Z,102008.69
2022-12-06T19:03:26.187Z,102007.03
2022-12-06T19:06:16.325Z,102002.13
2022-12-06T19:09:05.267Z,102004.41
2022-12-06T19:11:50.420Z,102000.13
2022-12-06T19:14:35.645Z,101978.75
2022-12-06T19:17:20.999Z,101976.19
2022-12-06T19:20:06.906Z,101987.53
2022-12-06T19:22:52.248Z,101979.94
2022-12-06T19:25:37.462Z,101970.84
2022-12-06T19:28:22.464Z,101993.41
2022-12-06T19:31:10.942Z,101990.84
2022-12-06T19:33:56.016Z,102003.00
2022-12-06T19:36:40.979Z,102002.66
2022-12-06T19:39:26.971Z,102007.22
2022-12-06T19:42:30.837Z,102009.25
2022-12-06T19:45:16.056Z,101999.03
2022-12-06T19:48:01.388Z,102001.53
2022-12-06T19:50:46.300Z,102011.00
2022-12-06T19:53:35.913Z,102016.31
2022-12-06T19:56:22.363Z,102014.44
2022-12-06T19:59:16.370Z,102027.50
2022-12-06T20:02:02.463Z,102042.25
2022-12-06T20:04:48.728Z,102025.66
2022-12-06T20:07:33.821Z,102012.66
2022-12-06T20:10:18.959Z,102023.66
2022-12-06T20:13:06.258Z,102013.25
2022-12-06T20:15:51.540Z,102018.31
2022-12-06T20:18:36.685Z,102024.09
2022-12-06T20:21:22.173Z,102017.22
2022-12-06T20:24:07.714Z,102007.00
2022-12-06T20:26:54.515Z,102018.91
2022-12-06T20:29:40.214Z,101979.53
2022-12-06T20:32:25.380Z,102013.72
2022-12-06T20:35:10.881Z,101991.41
2022-12-06T20:37:56.178Z,102005.88
2022-12-06T20:40:41.182Z,102014.34
2022-12-06T20:43:26.217Z,102016.91
2022-12-06T20:46:15.472Z,102016.03
2022-12-06T20:49:05.427Z,102022.00
2022-12-06T20:51:53.286Z,102026.31
2022-12-06T20:54:39.129Z,102002.34
2022-12-06T20:57:24.942Z,102013.22
2022-12-06T21:00:11.636Z,101994.47
2022-12-06T21:02:57.196Z,102017.56
2022-12-06T21:05:45.264Z,101991.91
2022-12-06T21:08:31.712Z,102014.16
2022-12-06T21:11:23.045Z,101993.72
2022-12-06T21:14:12.667Z,102026.94
2022-12-06T21:16:57.749Z,102026.88
2022-12-06T21:19:42.874Z,102020.72
2022-12-06T21:22:28.050Z,102018.19
2022-12-06T21:25:13.022Z,102016.47
2022-12-06T21:27:57.878Z,102010.50
2022-12-06T21:30:48.725Z,102019.97
2022-12-06T21:33:34.238Z,102011.41
2022-12-06T21:36:18.944Z,102010.53
2022-12-06T21:39:04.659Z,101994.91
2022-12-06T21:41:50.136Z,102008.75
2022-12-06T21:44:35.039Z,102004.53
2022-12-06T21:47:20.254Z,102023.44
2022-12-06T21:50:05.781Z,102006.13
2022-12-06T21:52:53.565Z,101999.16
2022-12-06T21:55:39.391Z,102005.13
2022-12-06T21:58:25.032Z,101997.63
2022-12-06T22:01:13.416Z,102003.72
2022-12-06T22:04:02.208Z,102024.25
2022-12-06T22:06:47.557Z,102012.28
2022-12-06T22:09:33.005Z,102016.56
2022-12-06T22:12:18.332Z,102022.69
2022-12-06T22:15:03.704Z,102015.69
2022-12-06T22:17:48.898Z,102020.91
2022-12-06T22:20:33.727Z,102018.34
2022-12-06T22:23:18.938Z,102029.59
2022-12-06T22:26:09.588Z,102024.41
2022-12-06T22:28:55.225Z,102028.72
2022-12-06T22:31:40.617Z,102034.88
2022-12-06T22:34:26.065Z,102028.06
2022-12-06T22:37:11.195Z,102022.25
2022-12-06T22:39:56.272Z,102036.78
2022-12-06T22:42:41.116Z,102039.38
2022-12-06T22:45:26.376Z,102035.31
2022-12-06T22:48:11.598Z,102030.22
2022-12-06T22:51:10.434Z,102039.75
2022-12-06T22:54:03.370Z,102044.06
2022-12-06T22:56:48.952Z,102017.53
2022-12-06T22:59:33.685Z,102034.41
2022-12-06T23:02:18.869Z,102042.22
2022-12-06T23:05:04.124Z,102034.41
2022-12-06T23:07:49.476Z,102020.72
2022-12-06T23:10:34.369Z,102020.72
2022-12-06T23:13:19.534Z,102025.09
2022-12-06T23:16:07.722Z,102036.06
2022-12-06T23:18:53.047Z,102036.16
2022-12-06T23:21:38.629Z,101998.59
2022-12-06T23:24:23.980Z,102031.13
2022-12-06T23:27:09.257Z,102035.44
2022-12-06T23:29:54.661Z,102026.03
2022-12-06T23:32:39.564Z,102020.81
2022-12-06T23:35:24.840Z,102027.84
2022-12-06T23:38:12.822Z,102023.66
2022-12-06T23:41:06.446Z,102025.22
2022-12-06T23:43:53.443Z,102008.94
2022-12-06T23:46:39.770Z,102022.63
2022-12-06T23:49:24.897Z,102007.38
2022-12-06T23:52:10.010Z,101998.75
2022-12-06T23:54:55.185Z,102016.84
2022-12-06T23:57:40.412Z,102023.53
